Time;durP1;ratioP1;P1;durP2;ratioP2;P2;SDS_P1;SDS_P2;PMS_P1;PMS_P2;Temp;Humidity;BMP_temperature;BMP_pressure;BME280_temperature;BME280_humidity;BME280_pressure;Samples;Min_cycle;Max_cycle;Signal;HPM_P1;HPM_P2
2021/12/03 00:02:12;;;;;;;4.37;3.03;;;1.40;99.90;;;;;;5085911;28;20613;-66
2021/12/03 00:04:38;;;;;;;6.43;3.77;;;1.40;99.90;;;;;;5087133;28;20225;-67
2021/12/03 00:07:04;;;;;;;4.27;3.30;;;1.40;99.90;;;;;;5085551;28;20214;-70
2021/12/03 00:09:34;;;;;;;3.60;3.20;;;1.40;99.90;;;;;;5086498;28;20278;-65
2021/12/03 00:12:00;;;;;;;4.15;3.63;;;1.30;99.90;;;;;;5087448;28;20191;-67
2021/12/03 00:14:26;;;;;;;3.03;2.80;;;1.30;99.90;;;;;;5087462;28;20214;-67
2021/12/03 00:16:52;;;;;;;4.93;2.90;;;1.20;99.90;;;;;;5087320;28;20472;-67
2021/12/03 00:19:17;;;;;;;2.73;2.50;;;1.20;99.90;;;;;;5085656;28;20178;-67
2021/12/03 00:21:43;;;;;;;3.40;2.80;;;1.20;99.90;;;;;;5087822;28;20260;-67
2021/12/03 00:24:09;;;;;;;3.13;2.83;;;1.20;99.90;;;;;;5086099;28;20858;-67
2021/12/03 00:26:34;;;;;;;3.23;2.93;;;1.10;99.90;;;;;;5087593;28;20194;-66
2021/12/03 00:29:00;;;;;;;5.50;3.50;;;1.10;99.90;;;;;;5087827;28;20588;-67
2021/12/03 00:31:26;;;;;;;4.10;3.23;;;1.10;99.90;;;;;;5069163;28;20201;-67
2021/12/03 00:33:51;;;;;;;3.43;3.03;;;1.10;99.90;;;;;;5085834;28;20287;-66
2021/12/03 00:36:17;;;;;;;5.47;3.70;;;1.10;99.90;;;;;;5087143;28;20269;-67
2021/12/03 00:38:46;;;;;;;4.07;3.13;;;1.00;99.90;;;;;;5087657;28;20216;-67
2021/12/03 00:41:15;;;;;;;3.47;2.83;;;1.00;99.90;;;;;;5087133;28;20534;-68
2021/12/03 00:43:46;;;;;;;4.93;3.40;;;0.90;99.90;;;;;;5087389;28;20225;-67
2021/12/03 00:46:16;;;;;;;5.50;3.90;;;1.00;99.90;;;;;;5085212;28;20183;-67
2021/12/03 00:48:42;;;;;;;5.18;3.33;;;1.00;99.90;;;;;;5086747;28;20304;-67
2021/12/03 00:51:09;;;;;;;3.53;2.95;;;1.00;99.90;;;;;;5085818;28;20187;-66
2021/12/03 00:53:38;;;;;;;4.18;2.92;;;1.00;99.90;;;;;;5086020;28;20292;-65
2021/12/03 00:56:04;;;;;;;4.15;2.50;;;1.00;99.90;;;;;;5087436;28;20243;-66
2021/12/03 00:58:30;;;;;;;4.40;3.53;;;1.00;99.90;;;;;;5088173;28;20631;-66
2021/12/03 01:00:56;;;;;;;4.40;4.00;;;1.00;99.90;;;;;;5086349;28;20194;-66
2021/12/03 01:03:23;;;;;;;3.93;3.30;;;1.10;99.90;;;;;;5090218;28;20414;-66
2021/12/03 01:05:49;;;;;;;3.33;3.03;;;1.10;99.90;;;;;;5090416;28;20261;-67
2021/12/03 01:08:15;;;;;;;3.83;3.30;;;1.10;99.90;;;;;;5090559;28;20277;-65
2021/12/03 01:10:40;;;;;;;6.53;3.40;;;1.20;99.90;;;;;;5089206;28;20188;-65
2021/12/03 01:13:06;;;;;;;4.80;3.20;;;1.20;99.90;;;;;;5090267;28;20660;-66
2021/12/03 01:15:37;;;;;;;5.33;3.40;;;1.20;99.90;;;;;;5090627;28;20316;-64
2021/12/03 01:18:05;;;;;;;3.38;3.08;;;1.20;99.90;;;;;;5089712;28;20673;-66
2021/12/03 01:20:31;;;;;;;4.47;3.40;;;1.30;99.90;;;;;;5088971;28;20188;-65
2021/12/03 01:22:58;;;;;;;4.68;3.75;;;1.30;99.90;;;;;;5090032;28;20639;-66
2021/12/03 01:25:24;;;;;;;4.95;3.63;;;1.30;99.90;;;;;;5090131;28;20187;-67
2021/12/03 01:27:51;;;;;;;4.30;3.83;;;1.10;99.90;;;;;;5071469;28;21281;-66
2021/12/03 01:30:19;;;;;;;5.82;4.10;;;1.20;99.90;;;;;;5090271;28;20191;-66
2021/12/03 01:32:46;;;;;;;6.13;4.07;;;1.10;99.90;;;;;;5090325;28;20195;-65
2021/12/03 01:35:12;;;;;;;7.07;4.50;;;1.10;99.90;;;;;;5090927;28;20720;-65
2021/12/03 01:37:39;;;;;;;6.30;4.40;;;1.10;99.90;;;;;;5089071;28;20247;-65
2021/12/03 01:40:08;;;;;;;6.60;3.90;;;1.20;99.90;;;;;;5088997;28;20436;-65
2021/12/03 01:42:34;;;;;;;12.10;4.38;;;1.20;99.90;;;;;;5090385;28;20287;-65
2021/12/03 01:45:00;;;;;;;5.87;4.17;;;1.20;99.90;;;;;;5090574;28;20183;-66
2021/12/03 01:47:25;;;;;;;6.83;5.00;;;1.20;99.90;;;;;;5090623;28;20188;-65
2021/12/03 01:49:51;;;;;;;5.80;4.70;;;1.20;99.90;;;;;;5090616;28;20191;-66
2021/12/03 01:52:17;;;;;;;7.67;4.53;;;1.20;99.90;;;;;;5089573;28;20606;-65
2021/12/03 01:54:43;;;;;;;5.50;5.00;;;1.20;99.90;;;;;;5090730;28;20711;-64
2021/12/03 01:57:08;;;;;;;5.03;4.53;;;1.30;99.90;;;;;;5088632;28;20294;-66
2021/12/03 01:59:34;;;;;;;5.30;4.80;;;1.30;99.90;;;;;;5090363;28;20194;-67
2021/12/03 02:02:00;;;;;;;6.53;4.47;;;1.30;99.90;;;;;;5090311;28;20219;-65
2021/12/03 02:04:26;;;;;;;5.70;4.77;;;1.30;99.90;;;;;;5090400;28;20198;-66
2021/12/03 02:06:51;;;;;;;7.45;4.78;;;1.30;99.90;;;;;;5088332;28;21034;-66
2021/12/03 02:09:17;;;;;;;6.40;4.77;;;1.20;99.90;;;;;;5088895;28;20202;-67
2021/12/03 02:11:43;;;;;;;8.00;5.00;;;1.30;99.90;;;;;;5090034;28;20187;-66
2021/12/03 02:14:09;;;;;;;9.37;5.83;;;1.20;99.90;;;;;;5090339;28;20191;-65
2021/12/03 02:16:34;;;;;;;8.13;5.07;;;1.30;99.90;;;;;;5090072;28;20269;-65
2021/12/03 02:19:00;;;;;;;6.10;5.20;;;1.30;99.90;;;;;;5088441;28;20184;-65
2021/12/03 02:21:26;;;;;;;8.60;5.40;;;1.30;99.90;;;;;;5088756;28;20279;-66
2021/12/03 02:23:52;;;;;;;7.13;5.07;;;1.30;99.90;;;;;;5089942;28;20187;-64
2021/12/03 02:26:19;;;;;;;7.27;4.60;;;1.30;99.90;;;;;;5089328;28;20186;-65
2021/12/03 02:28:47;;;;;;;6.93;4.22;;;1.30;99.90;;;;;;5089605;28;20977;-64
2021/12/03 02:31:16;;;;;;;5.20;4.70;;;1.30;99.90;;;;;;5089812;28;20187;-64
2021/12/03 02:33:42;;;;;;;4.68;4.28;;;1.20;99.90;;;;;;5089409;28;20557;-66
2021/12/03 02:36:09;;;;;;;5.93;4.60;;;1.20;99.90;;;;;;5089617;28;20233;-65
2021/12/03 02:38:35;;;;;;;10.15;5.25;;;1.20;99.90;;;;;;5087766;28;20202;-66
2021/12/03 02:41:01;;;;;;;5.03;4.50;;;1.20;99.90;;;;;;5088917;28;20645;-65
2021/12/03 02:43:27;;;;;;;6.53;5.50;;;1.20;99.90;;;;;;5089332;28;20193;-65
2021/12/03 02:45:53;;;;;;;6.30;4.85;;;1.20;99.90;;;;;;5088910;28;20693;-65
2021/12/03 02:48:20;;;;;;;7.00;4.40;;;1.20;99.90;;;;;;5089093;28;20262;-65
2021/12/03 02:50:46;;;;;;;7.05;4.95;;;1.20;99.90;;;;;;5089054;28;20901;-64
2021/12/03 02:53:12;;;;;;;4.83;3.90;;;1.20;99.90;;;;;;5089216;28;20186;-66
2021/12/03 02:55:38;;;;;;;7.38;5.00;;;1.10;99.90;;;;;;5088870;28;20904;-66
2021/12/03 02:58:04;;;;;;;5.57;4.57;;;1.10;99.90;;;;;;5087689;28;20220;-66
2021/12/03 03:00:31;;;;;;;6.10;5.40;;;1.10;99.90;;;;;;5087280;28;20269;-65
2021/12/03 03:02:57;;;;;;;5.80;5.20;;;1.10;99.90;;;;;;5080813;28;20452;-64
2021/12/03 03:05:24;;;;;;;7.60;5.90;;;1.10;99.90;;;;;;5087231;28;20214;-64
2021/12/03 03:07:50;;;;;;;9.50;4.68;;;1.10;99.90;;;;;;5087873;28;20226;-65
2021/12/03 03:10:21;;;;;;;7.97;5.03;;;1.10;99.90;;;;;;5088951;28;20185;-65
2021/12/03 03:12:47;;;;;;;7.38;4.55;;;1.10;99.90;;;;;;5087066;28;20260;-66
2021/12/03 03:15:14;;;;;;;6.90;4.90;;;1.10;99.90;;;;;;5088748;28;20183;-65
2021/12/03 03:17:40;;;;;;;5.47;4.68;;;1.00;99.90;;;;;;5086769;28;20464;-66
2021/12/03 03:20:07;;;;;;;9.05;4.85;;;1.00;99.90;;;;;;5087994;28;20245;-65
2021/12/03 03:22:35;;;;;;;6.07;5.45;;;0.90;99.90;;;;;;5086651;28;20193;-66
2021/12/03 03:25:02;;;;;;;11.27;5.03;;;0.90;99.90;;;;;;5088693;28;20277;-64
2021/12/03 03:27:29;;;;;;;5.10;4.60;;;0.90;99.90;;;;;;5069747;28;20191;-64
2021/12/03 03:29:55;;;;;;;6.75;4.57;;;0.80;99.90;;;;;;5086956;28;20191;-65
2021/12/03 03:32:22;;;;;;;9.50;5.35;;;0.80;99.90;;;;;;5088231;28;20182;-65
2021/12/03 03:34:48;;;;;;;9.43;5.20;;;0.80;99.90;;;;;;5086445;28;20198;-66
2021/12/03 03:37:14;;;;;;;5.70;5.10;;;0.80;99.90;;;;;;5088180;28;20196;-64
2021/12/03 03:39:40;;;;;;;6.32;5.40;;;0.70;99.90;;;;;;5086849;28;21123;-64
2021/12/03 03:42:07;;;;;;;6.05;5.50;;;0.70;99.90;;;;;;5088390;28;20182;-64
2021/12/03 03:44:34;;;;;;;7.85;6.13;;;0.70;99.90;;;;;;5088121;28;20191;-64
2021/12/03 03:47:01;;;;;;;8.57;6.20;;;0.70;99.90;;;;;;5086617;28;20218;-65
2021/12/03 03:49:27;;;;;;;7.63;4.93;;;0.70;99.90;;;;;;5082359;28;20186;-64
2021/12/03 03:51:54;;;;;;;5.88;5.30;;;0.60;99.90;;;;;;5087908;28;20199;-66
2021/12/03 03:54:20;;;;;;;6.32;5.35;;;0.60;99.90;;;;;;5087787;28;20206;-65
2021/12/03 03:56:46;;;;;;;9.73;5.60;;;0.60;99.90;;;;;;5086162;28;20219;-65
2021/12/03 03:59:12;;;;;;;9.43;6.40;;;0.60;99.90;;;;;;5087956;28;20261;-66
2021/12/03 04:01:38;;;;;;;6.23;4.70;;;0.50;99.90;;;;;;5086303;28;20269;-64
2021/12/03 04:04:04;;;;;;;25.20;5.80;;;0.50;99.90;;;;;;5087674;28;20437;-67
2021/12/03 04:06:29;;;;;;;6.30;5.67;;;0.50;99.90;;;;;;5087080;28;20207;-65
2021/12/03 04:08:55;;;;;;;5.70;4.80;;;0.50;99.90;;;;;;5069846;28;20195;-66
2021/12/03 04:11:23;;;;;;;7.83;5.37;;;0.50;99.90;;;;;;5086121;28;20223;-65
2021/12/03 04:13:49;;;;;;;10.05;4.95;;;0.50;99.90;;;;;;5086237;28;20182;-65
2021/12/03 04:16:16;;;;;;;6.18;5.50;;;0.50;99.90;;;;;;5087715;28;20296;-64
2021/12/03 04:18:42;;;;;;;8.10;4.95;;;0.50;99.90;;;;;;5086966;28;20634;-66
2021/12/03 04:21:08;;;;;;;7.83;5.30;;;0.50;99.90;;;;;;5086152;28;20194;-67
2021/12/03 04:23:34;;;;;;;7.35;5.70;;;0.40;99.90;;;;;;5068932;28;20547;-66
2021/12/03 04:26:00;;;;;;;9.05;5.35;;;0.40;99.90;;;;;;5086118;28;20265;-66
2021/12/03 04:28:26;;;;;;;5.90;4.90;;;0.50;99.90;;;;;;5087392;28;20323;-67
2021/12/03 04:30:52;;;;;;;7.47;5.40;;;0.50;99.90;;;;;;5086971;28;20196;-66
2021/12/03 04:33:18;;;;;;;6.55;5.85;;;0.50;99.90;;;;;;5086899;28;20547;-67
2021/12/03 04:35:44;;;;;;;7.17;5.70;;;0.50;99.90;;;;;;5086995;28;20186;-66
2021/12/03 04:38:10;;;;;;;5.78;5.13;;;0.50;99.90;;;;;;5068704;28;21002;-66
2021/12/03 04:40:38;;;;;;;7.77;5.60;;;0.50;99.90;;;;;;5087181;28;20190;-65
2021/12/03 04:43:04;;;;;;;7.95;5.50;;;0.50;99.90;;;;;;5085674;28;20227;-67
2021/12/03 04:45:30;;;;;;;5.85;4.95;;;0.50;99.90;;;;;;5085905;28;20189;-68
2021/12/03 04:47:57;;;;;;;5.85;5.03;;;0.50;99.90;;;;;;5087009;28;20544;-67
2021/12/03 04:50:25;;;;;;;10.18;5.95;;;0.50;99.90;;;;;;5087145;28;20193;-67
2021/12/03 04:52:52;;;;;;;9.95;7.40;;;0.50;99.90;;;;;;5087151;28;20190;-65
2021/12/03 04:55:19;;;;;;;5.78;5.18;;;0.60;99.90;;;;;;5087109;28;20574;-66
2021/12/03 04:57:44;;;;;;;7.50;5.75;;;0.60;99.90;;;;;;5085462;28;20694;-66
2021/12/03 05:00:14;;;;;;;8.97;6.23;;;0.60;99.90;;;;;;5085630;28;20197;-66
2021/12/03 05:02:40;;;;;;;7.45;5.03;;;0.60;99.90;;;;;;5086223;28;20202;-68
2021/12/03 05:05:06;;;;;;;5.50;4.93;;;0.60;99.90;;;;;;5084315;28;20657;-68
2021/12/03 05:10:12;;;;;;;10.10;5.70;;;0.60;99.90;;;;;;5084272;28;20675;-68
2021/12/03 05:12:38;;;;;;;5.45;4.65;;;0.60;99.90;;;;;;5084470;28;20183;-68
2021/12/03 05:15:04;;;;;;;6.60;5.00;;;0.60;99.90;;;;;;5067498;28;20197;-68
2021/12/03 05:17:30;;;;;;;7.00;5.38;;;0.50;99.90;;;;;;5085653;28;20219;-69
2021/12/03 05:19:56;;;;;;;4.67;4.27;;;0.50;99.90;;;;;;5051215;28;20265;-69
2021/12/03 05:22:22;;;;;;;7.23;4.30;;;0.50;99.90;;;;;;5067602;28;20196;-69
2021/12/03 05:24:47;;;;;;;10.63;5.37;;;0.50;99.90;;;;;;5068117;28;20210;-70
2021/12/03 05:27:18;;;;;;;6.10;5.33;;;0.50;99.90;;;;;;5067404;28;20420;-69
2021/12/03 05:29:47;;;;;;;7.15;5.03;;;0.50;99.90;;;;;;5084141;28;20194;-69
2021/12/03 05:32:13;;;;;;;6.20;4.40;;;0.50;99.90;;;;;;5079398;28;20195;-69
2021/12/03 05:34:39;;;;;;;5.03;4.50;;;0.40;99.90;;;;;;5079226;28;20201;-68
2021/12/03 05:37:08;;;;;;;6.33;4.70;;;0.40;99.90;;;;;;5083420;28;20510;-69
2021/12/03 05:39:35;;;;;;;7.20;4.43;;;0.50;99.90;;;;;;5082315;28;20243;-70
2021/12/03 05:42:01;;;;;;;6.13;4.35;;;0.40;99.90;;;;;;5084176;28;20274;-69
2021/12/03 05:44:29;;;;;;;9.43;5.43;;;0.30;99.90;;;;;;5068476;28;20768;-68
2021/12/03 05:46:56;;;;;;;4.90;4.40;;;0.30;99.90;;;;;;5052921;28;21065;-68
2021/12/03 05:49:22;;;;;;;8.77;4.40;;;0.30;99.90;;;;;;5052465;28;20264;-69
2021/12/03 05:51:47;;;;;;;7.33;5.10;;;0.30;99.90;;;;;;5087474;28;20187;-69
2021/12/03 05:54:13;;;;;;;6.00;4.83;;;0.30;99.90;;;;;;5086397;28;20221;-69
2021/12/03 05:56:39;;;;;;;9.30;4.53;;;0.30;99.90;;;;;;5052019;28;20200;-69
2021/12/03 05:59:04;;;;;;;4.40;3.90;;;0.30;99.90;;;;;;5086400;28;20201;-70
2021/12/03 06:01:30;;;;;;;5.47;4.60;;;0.40;99.90;;;;;;5087578;28;20186;-69
2021/12/03 06:03:56;;;;;;;4.40;4.00;;;0.40;99.90;;;;;;5087393;28;20178;-69
2021/12/03 06:06:22;;;;;;;4.70;4.30;;;0.40;99.90;;;;;;5086821;28;20452;-69
2021/12/03 06:08:48;;;;;;;5.38;4.03;;;0.40;99.90;;;;;;5086085;28;20519;-69
2021/12/03 06:11:14;;;;;;;4.35;3.95;;;0.40;99.90;;;;;;5085660;28;20209;-69
2021/12/03 06:13:40;;;;;;;7.23;4.10;;;0.40;99.90;;;;;;5085786;28;20190;-69
2021/12/03 06:16:07;;;;;;;4.13;3.63;;;0.40;99.90;;;;;;5087032;28;20551;-70
2021/12/03 06:18:33;;;;;;;5.68;3.75;;;0.30;99.90;;;;;;5087028;28;20472;-69
2021/12/03 06:21:00;;;;;;;3.90;3.47;;;0.30;99.90;;;;;;5085675;28;20198;-69
2021/12/03 06:23:26;;;;;;;4.32;3.95;;;0.30;99.90;;;;;;5087421;28;21416;-69
2021/12/03 06:25:51;;;;;;;4.53;4.13;;;0.40;99.90;;;;;;5086679;28;20202;-69
2021/12/03 06:28:17;;;;;;;5.03;4.13;;;0.40;99.90;;;;;;5086951;28;20215;-69
2021/12/03 06:30:42;;;;;;;6.90;4.07;;;0.50;99.90;;;;;;5085513;28;20190;-69
2021/12/03 06:33:09;;;;;;;6.67;4.07;;;0.50;99.90;;;;;;5086348;28;20183;-69
2021/12/03 06:35:34;;;;;;;6.95;3.97;;;0.50;99.90;;;;;;5086651;28;20312;-69
2021/12/03 06:38:00;;;;;;;5.00;4.20;;;0.50;99.90;;;;;;5085234;28;21255;-69
2021/12/03 06:40:27;;;;;;;5.87;4.30;;;0.40;99.90;;;;;;5085492;28;20564;-69
2021/12/03 06:42:53;;;;;;;7.40;4.25;;;0.40;99.90;;;;;;5085792;28;21013;-69
2021/12/03 06:45:19;;;;;;;4.60;4.10;;;0.30;99.90;;;;;;5086999;28;20194;-68
2021/12/03 06:47:45;;;;;;;4.85;4.40;;;0.40;99.90;;;;;;5084904;28;20221;-69
2021/12/03 06:50:16;;;;;;;4.90;4.10;;;0.30;99.90;;;;;;5085389;28;20216;-69
2021/12/03 06:52:44;;;;;;;4.10;3.80;;;0.30;99.90;;;;;;5086835;28;20864;-69
2021/12/03 06:55:14;;;;;;;5.72;4.47;;;0.30;99.90;;;;;;5085888;28;20186;-69
2021/12/03 06:57:42;;;;;;;4.55;4.13;;;0.30;99.90;;;;;;5086432;28;20211;-69
2021/12/03 07:00:09;;;;;;;6.07;4.80;;;0.30;99.90;;;;;;5084751;28;20192;-69
2021/12/03 07:02:35;;;;;;;4.00;3.60;;;0.30;99.90;;;;;;5085089;28;20726;-69
2021/12/03 07:05:04;;;;;;;5.20;4.70;;;0.20;99.90;;;;;;5086369;28;20207;-69
2021/12/03 07:07:30;;;;;;;6.57;3.60;;;0.30;99.90;;;;;;5085340;28;20558;-69
2021/12/03 07:09:56;;;;;;;5.07;4.50;;;0.30;99.90;;;;;;5086291;28;20218;-69
2021/12/03 07:12:22;;;;;;;5.33;3.93;;;0.30;99.90;;;;;;5084761;28;20698;-69
2021/12/03 07:14:47;;;;;;;6.07;4.10;;;0.40;99.90;;;;;;5084283;28;20443;-69
2021/12/03 07:17:14;;;;;;;8.13;4.40;;;0.40;99.90;;;;;;5085605;28;20946;-70
2021/12/03 07:19:40;;;;;;;5.23;4.40;;;0.40;99.90;;;;;;5084714;28;20197;-70
2021/12/03 07:22:06;;;;;;;4.73;4.00;;;0.30;99.90;;;;;;5085780;28;21227;-69
2021/12/03 07:24:33;;;;;;;4.60;4.17;;;0.30;99.90;;;;;;5085917;28;20770;-69
2021/12/03 07:26:59;;;;;;;5.93;4.30;;;0.20;99.90;;;;;;5084246;28;20194;-69
2021/12/03 07:29:25;;;;;;;18.73;5.03;;;0.40;99.90;;;;;;5085857;28;20190;-68
2021/12/03 07:31:50;;;;;;;6.50;4.07;;;0.40;99.90;;;;;;5083946;28;20559;-68
2021/12/03 07:34:16;;;;;;;5.50;3.80;;;0.40;99.90;;;;;;5085526;28;20186;-69
2021/12/03 07:36:42;;;;;;;5.03;4.23;;;0.40;99.90;;;;;;5083239;28;20195;-69
2021/12/03 07:39:08;;;;;;;3.90;3.47;;;0.30;99.90;;;;;;5085443;28;20239;-68
2021/12/03 07:41:36;;;;;;;5.10;4.27;;;0.30;99.90;;;;;;5067217;28;20186;-68
2021/12/03 07:44:03;;;;;;;5.15;4.65;;;0.30;99.90;;;;;;5083870;28;20187;-68
2021/12/03 07:46:28;;;;;;;4.50;4.00;;;0.40;99.90;;;;;;5085540;28;20274;-68
2021/12/03 07:48:54;;;;;;;11.10;4.03;;;0.40;99.90;;;;;;5084610;28;20197;-69
2021/12/03 07:51:20;;;;;;;5.27;4.67;;;0.60;99.90;;;;;;5086071;28;20194;-68
2021/12/03 07:53:45;;;;;;;5.27;3.80;;;0.80;99.90;;;;;;5084827;28;20191;-69
2021/12/03 07:56:11;;;;;;;5.23;3.93;;;1.00;99.90;;;;;;5084916;28;20447;-69
2021/12/03 07:58:38;;;;;;;6.90;3.57;;;1.30;99.90;;;;;;5085856;28;20214;-70
2021/12/03 08:01:04;;;;;;;4.20;3.80;;;1.60;99.90;;;;;;5085773;28;20218;-69
2021/12/03 08:03:29;;;;;;;11.57;4.65;;;2.30;99.90;;;;;;5084395;28;20223;-69
2021/12/03 08:05:55;;;;;;;13.10;4.13;;;3.20;99.90;;;;;;5084951;28;20750;-70
2021/12/03 08:08:26;;;;;;;30.47;14.07;;;4.40;99.90;;;;;;5085214;28;20650;-69
2021/12/03 08:10:55;;;;;;;7.50;6.37;;;6.20;99.90;;;;;;5084482;28;20715;-70
2021/12/03 08:13:20;;;;;;;3.93;3.63;;;7.50;99.60;;;;;;5084563;28;20466;-70
2021/12/03 08:15:46;;;;;;;6.27;4.67;;;8.80;95.20;;;;;;5085586;28;20501;-70
2021/12/03 08:18:12;;;;;;;5.73;5.13;;;9.20;91.70;;;;;;5084493;28;20224;-71
2021/12/03 08:20:37;;;;;;;4.83;4.33;;;9.60;93.10;;;;;;5067344;28;20716;-70
2021/12/03 08:23:03;;;;;;;5.90;3.47;;;10.30;88.90;;;;;;5085706;28;20716;-70
2021/12/03 08:25:29;;;;;;;4.43;3.20;;;9.40;86.20;;;;;;5085923;28;20854;-70
2021/12/03 08:27:55;;;;;;;9.87;5.73;;;10.40;86.70;;;;;;5084480;28;20564;-71
2021/12/03 08:30:21;;;;;;;33.30;16.00;;;11.10;82.00;;;;;;5084357;28;20434;-71
2021/12/03 08:32:48;;;;;;;14.10;7.73;;;11.80;77.30;;;;;;5083200;28;20194;-71
2021/12/03 08:35:14;;;;;;;8.57;4.97;;;12.50;75.30;;;;;;5085230;28;20466;-71
2021/12/03 08:37:45;;;;;;;4.03;3.20;;;13.00;68.10;;;;;;5084757;28;20472;-71
2021/12/03 08:40:11;;;;;;;18.40;9.67;;;13.00;67.50;;;;;;5067842;28;20437;-71
2021/12/03 08:42:37;;;;;;;9.10;5.57;;;13.40;68.60;;;;;;5066767;28;20456;-71
2021/12/03 08:45:04;;;;;;;3.83;2.87;;;13.60;64.90;;;;;;5083857;28;20430;-71
2021/12/03 08:47:32;;;;;;;5.10;3.10;;;13.90;63.00;;;;;;5084947;28;21075;-71
2021/12/03 08:50:00;;;;;;;21.00;12.23;;;14.30;60.90;;;;;;5083917;28;20769;-71
2021/12/03 08:52:44;;;;;;;35.90;25.07;;;14.40;60.10;;;;;;5083728;28;20499;-71
2021/12/03 08:55:10;;;;;;;3.50;3.20;;;13.90;60.30;;;;;;5084904;28;20454;-70
2021/12/03 08:57:35;;;;;;;8.20;6.17;;;11.80;58.40;;;;;;5084485;28;20560;-70
2021/12/03 09:00:13;;;;;;;4.40;3.50;;;10.70;65.80;;;;;;5084629;28;20248;-70
2021/12/03 09:02:40;;;;;;;7.00;3.10;;;8.70;71.40;;;;;;5082975;28;20337;-70
2021/12/03 09:05:07;;;;;;;3.93;2.73;;;7.80;77.90;;;;;;5082926;28;20428;-69
2021/12/03 09:07:34;;;;;;;3.27;3.00;;;7.20;84.60;;;;;;5082601;28;20605;-70
2021/12/03 09:09:59;;;;;;;3.93;3.53;;;6.60;89.00;;;;;;5083691;28;21057;-70
2021/12/03 09:12:27;;;;;;;5.10;4.00;;;5.90;92.90;;;;;;5084633;28;20437;-70
2021/12/03 09:14:55;;;;;;;5.10;4.60;;;5.60;94.40;;;;;;5084772;28;20848;-69
2021/12/03 09:22:19;;;;;;;8.10;5.70;;;4.40;96.50;;;;;;5089058;28;20269;-69
2021/12/03 09:24:45;;;;;;;6.83;4.40;;;4.70;99.50;;;;;;5088951;28;20225;-70
2021/12/03 09:27:11;;;;;;;3.30;3.00;;;5.20;97.50;;;;;;5086959;28;21195;-69
2021/12/03 09:29:37;;;;;;;4.40;2.80;;;6.10;95.70;;;;;;5087391;28;20665;-70
2021/12/03 09:32:03;;;;;;;3.20;2.60;;;7.40;94.50;;;;;;5087432;28;20527;-70
2021/12/03 09:34:31;;;;;;;2.77;2.57;;;9.30;90.80;;;;;;5088347;28;20479;-71
2021/12/03 09:36:57;;;;;;;3.63;2.70;;;11.30;82.10;;;;;;5088402;28;20477;-70
2021/12/03 09:39:24;;;;;;;2.60;1.93;;;12.90;70.40;;;;;;5088441;28;20470;-71
2021/12/03 09:41:51;;;;;;;2.80;2.60;;;13.40;62.00;;;;;;5088329;28;20779;-70
2021/12/03 09:44:19;;;;;;;2.77;2.57;;;14.20;62.50;;;;;;5087073;28;20433;-71
2021/12/03 09:46:46;;;;;;;4.00;2.83;;;15.10;60.30;;;;;;5088587;28;20824;-70
2021/12/03 09:52:03;;;;;;;4.47;2.73;;;16.30;55.10;;;;;;5088532;28;21105;-70
2021/12/03 09:57:05;;;;;;;2.60;2.40;;;17.20;54.20;;;;;;5088136;28;20467;-70
2021/12/03 10:05:24;;;;;;;2.60;2.00;;;16.50;51.80;;;;;;5087444;28;20425;-70
2021/12/03 10:13:17;;;;;;;2.93;2.43;;;16.70;49.10;;;;;;5076869;28;20422;-70
2021/12/03 10:15:54;;;;;;;2.40;2.20;;;15.60;49.20;;;;;;5087697;28;20416;-69
2021/12/03 10:18:33;;;;;;;4.90;3.00;;;16.70;51.10;;;;;;5087362;28;21170;-71
2021/12/03 10:21:17;;;;;;;2.70;2.50;;;15.50;48.80;;;;;;5087733;28;20451;-70
2021/12/03 10:26:59;;;;;;;4.27;3.03;;;16.80;49.30;;;;;;5087008;28;20473;-70
2021/12/03 10:29:23;;;;;;;3.03;2.63;;;17.40;48.90;;;;;;5087120;28;20432;-70
2021/12/03 10:37:44;;;;;;;3.47;2.50;;;18.70;46.30;;;;;;5087219;28;20601;-70
2021/12/03 10:43:45;;;;;;;2.77;2.33;;;18.10;44.50;;;;;;5087872;28;20528;-71
2021/12/03 11:30:25;;;;;;;4.40;3.23;;;14.60;48.30;;;;;;5085484;28;20481;-69
2021/12/03 11:55:55;;;;;;;2.80;2.60;;;12.40;51.70;;;;;;5085398;28;20431;-68
2021/12/03 12:21:05;;;;;;;6.67;2.40;;;7.10;83.50;;;;;;5082025;28;20552;-67
2021/12/03 14:48:33;;;;;;;1.60;1.03;;;3.10;97.40;;;;;;5085698;28;20997;-68
2021/12/03 14:56:40;;;;;;;3.28;1.90;;;2.90;99.20;;;;;;5085192;28;20198;-67
2021/12/03 14:59:22;;;;;;;3.17;1.73;;;2.80;99.90;;;;;;5084847;28;20235;-68
2021/12/03 15:02:00;;;;;;;2.30;1.57;;;2.60;99.90;;;;;;5084038;28;20226;-67
2021/12/03 15:07:14;;;;;;;2.13;1.20;;;2.60;99.90;;;;;;5085065;28;20252;-67
2021/12/03 15:09:42;;;;;;;2.03;1.40;;;2.60;99.90;;;;;;5084390;28;20465;-67
2021/12/03 15:20:38;;;;;;;4.87;1.80;;;2.60;99.90;;;;;;5083888;28;20273;-67
2021/12/03 15:26:07;;;;;;;3.00;1.77;;;2.50;99.90;;;;;;5084608;28;20980;-68
2021/12/03 15:28:56;;;;;;;1.85;1.75;;;2.40;99.90;;;;;;5084098;28;20577;-68
2021/12/03 15:31:37;;;;;;;3.53;1.70;;;2.30;99.90;;;;;;5083994;28;20321;-68
2021/12/03 15:39:39;;;;;;;4.70;2.47;;;2.20;99.90;;;;;;5083897;28;20334;-68
2021/12/03 16:04:02;;;;;;;2.20;2.05;;;1.90;99.90;;;;;;5073764;28;20199;-68
2021/12/03 16:06:55;;;;;;;2.38;1.70;;;1.90;99.90;;;;;;5082743;28;20215;-68
2021/12/03 16:10:09;;;;;;;2.97;2.63;;;1.90;99.90;;;;;;5082631;28;20204;-68
2021/12/03 16:12:21;;;;;;;4.40;3.08;;;1.90;99.90;;;;;;5079260;28;20209;-68
2021/12/03 16:15:06;;;;;;;2.25;1.80;;;1.80;99.90;;;;;;5082738;28;20570;-68
2021/12/03 16:52:34;;;;;;;3.58;2.00;;;1.60;99.90;;;;;;5078513;28;20193;-68
2021/12/03 16:55:02;;;;;;;1.85;1.75;;;1.60;99.90;;;;;;5078066;28;20203;-67
2021/12/03 16:57:31;;;;;;;3.28;2.10;;;1.60;99.90;;;;;;5079449;28;20215;-68
2021/12/03 16:59:59;;;;;;;2.90;1.88;;;1.50;99.90;;;;;;5080004;28;20199;-68
2021/12/03 17:02:35;;;;;;;2.70;2.22;;;1.60;99.90;;;;;;5078037;28;20239;-68
2021/12/03 17:08:06;;;;;;;3.67;2.47;;;1.60;99.90;;;;;;5077677;28;20224;-68
2021/12/03 17:50:10;;;;;;;2.27;2.03;;;1.80;99.90;;;;;;5085594;28;20278;-68
2021/12/03 17:53:06;;;;;;;4.65;2.25;;;1.70;99.90;;;;;;5084506;28;20431;-68
2021/12/03 17:58:25;;;;;;;2.05;1.85;;;1.80;99.90;;;;;;5084650;28;20230;-69
2021/12/03 18:01:16;;;;;;;2.13;1.85;;;1.90;99.90;;;;;;5084405;28;20194;-69
2021/12/03 18:09:14;;;;;;;2.00;1.90;;;1.80;99.90;;;;;;5084856;28;20219;-70
2021/12/03 18:44:34;;;;;;;2.95;2.33;;;1.70;99.90;;;;;;5082192;28;20194;-70
2021/12/03 18:57:57;;;;;;;3.17;2.70;;;1.60;99.90;;;;;;5084953;28;20234;-69
2021/12/03 19:00:28;;;;;;;3.33;3.03;;;1.60;99.90;;;;;;5083738;28;20184;-68
2021/12/03 19:02:56;;;;;;;3.30;2.90;;;1.60;99.90;;;;;;5083665;28;20210;-69
2021/12/03 19:08:05;;;;;;;6.55;3.85;;;1.60;99.90;;;;;;5084851;28;20278;-69
2021/12/03 19:10:33;;;;;;;5.30;3.90;;;1.50;99.90;;;;;;5083853;28;20322;-69
2021/12/03 19:13:03;;;;;;;4.00;3.60;;;1.50;99.90;;;;;;5085253;28;20199;-69
2021/12/03 19:15:29;;;;;;;3.40;3.05;;;1.50;99.90;;;;;;5068024;28;20179;-69
2021/12/03 19:18:00;;;;;;;5.28;3.78;;;1.60;99.90;;;;;;5083884;28;20236;-69
2021/12/03 19:20:28;;;;;;;3.47;3.15;;;1.60;99.90;;;;;;5083863;28;20887;-69
2021/12/03 19:22:53;;;;;;;3.63;2.97;;;1.60;99.90;;;;;;5084495;28;20302;-69
2021/12/03 19:25:19;;;;;;;4.33;3.67;;;1.60;99.90;;;;;;5087373;28;20682;-69
2021/12/03 19:27:45;;;;;;;3.90;3.58;;;1.70;99.90;;;;;;5085458;28;20187;-69
2021/12/03 19:30:11;;;;;;;4.60;2.40;;;1.70;99.90;;;;;;5086947;28;20222;-68
2021/12/03 19:32:38;;;;;;;9.17;4.10;;;1.60;99.90;;;;;;5085989;28;20252;-69
2021/12/03 19:35:05;;;;;;;12.60;2.60;;;1.70;99.90;;;;;;5085632;28;20429;-69
2021/12/03 19:37:30;;;;;;;4.47;3.70;;;1.60;99.90;;;;;;5086230;28;20727;-68
2021/12/03 19:40:03;;;;;;;6.10;3.27;;;1.70;99.90;;;;;;5087202;28;20188;-69
2021/12/03 19:42:44;;;;;;;5.10;3.25;;;1.70;99.90;;;;;;5085328;28;20281;-69
2021/12/03 19:45:14;;;;;;;199.50;65.18;;;1.70;99.90;;;;;;5083051;28;20188;-68
2021/12/03 19:47:54;;;;;;;7.05;5.38;;;1.70;99.90;;;;;;5086624;28;20848;-69
2021/12/03 19:52:59;;;;;;;6.82;3.58;;;1.80;99.90;;;;;;5086339;28;20196;-69
2021/12/03 19:55:25;;;;;;;6.72;3.40;;;1.80;99.90;;;;;;5084978;28;20554;-69
2021/12/03 19:57:51;;;;;;;4.00;3.10;;;1.80;99.90;;;;;;5052134;28;20311;-69
2021/12/03 20:00:18;;;;;;;5.67;3.47;;;1.80;99.90;;;;;;5085634;28;20273;-69
2021/12/03 20:02:44;;;;;;;5.57;3.35;;;1.90;99.90;;;;;;5084189;28;20225;-69
2021/12/03 20:05:10;;;;;;;4.45;2.88;;;1.90;99.90;;;;;;5086380;28;20188;-70
2021/12/03 20:07:35;;;;;;;5.83;3.00;;;1.90;99.90;;;;;;5086122;28;20346;-68
2021/12/03 20:10:08;;;;;;;2.60;2.40;;;1.90;99.90;;;;;;5085208;28;20271;-69
2021/12/03 20:12:34;;;;;;;4.88;2.78;;;1.90;99.90;;;;;;5085178;28;20192;-68
2021/12/03 20:15:02;;;;;;;3.93;3.57;;;2.00;99.90;;;;;;5086119;28;20210;-68
2021/12/03 20:17:32;;;;;;;3.05;2.75;;;2.00;99.90;;;;;;5086266;28;20469;-68
2021/12/03 20:20:00;;;;;;;5.45;2.80;;;2.00;99.90;;;;;;5085657;28;20207;-69
2021/12/03 20:27:52;;;;;;;7.18;3.33;;;2.00;99.90;;;;;;5086583;28;20661;-67
2021/12/03 20:30:35;;;;;;;11.20;3.42;;;2.00;99.90;;;;;;5069870;28;20204;-68
2021/12/03 20:36:21;;;;;;;2.80;2.60;;;1.90;99.90;;;;;;5064361;28;20200;-68
2021/12/03 20:38:51;;;;;;;3.28;2.97;;;1.90;99.90;;;;;;5086007;28;20614;-68
2021/12/03 20:41:28;;;;;;;3.00;2.70;;;2.00;99.90;;;;;;5085140;28;20270;-69